Atkinson, Nebraska
Current Conditions -  °F | °C
As of 12:55 AM on Thursday 27 Nov 2014 (Local Time) from KONL Reporting Station
Overcast Overcast  
Wind Chill: 18°   Ceiling: 4300
Heat Index: 18°   Visibility: 10mi
Dew Point: 11°   Wind: 0mph
Humidity: 75%   Direction: NA
Pressure: 30.42"   Gusts: NA
Location:  42.53°N, 98.98°W
Report Text: KONL 270655Z AUTO 00000KT 10SM OVC043 M08/M11 A3042 RMK AO2 T10771115
Loading
Personal Weather Stations






























Interactive Weather Map New forecast layout! Learn more

10-Day Weather Forecast

Advertisements
Track Severe Weather on mobile